Time;durP1;ratioP1;P1;durP2;ratioP2;P2;SDS_P1;SDS_P2;PMS_P1;PMS_P2;Temp;Humidity;BMP_temperature;BMP_pressure;BME280_temperature;BME280_humidity;BME280_pressure;Samples;Min_cycle;Max_cycle;Signal;HPM_P1;HPM_P2
2022/12/28 00:03:43;;;;;;;5.53;3.75;;;;;;;5.28;80.32;100858.44;10404232;28;20059;-51
2022/12/28 00:08:45;;;;;;;6.82;4.55;;;;;;;5.15;80.85;100854.66;10416240;28;20045;-51
2022/12/28 00:13:48;;;;;;;7.70;4.10;;;;;;;5.05;81.05;100848.97;10400767;28;20098;-51
2022/12/28 00:18:50;;;;;;;6.57;4.53;;;;;;;4.95;81.23;100819.53;10409850;28;20052;-51
2022/12/28 00:23:53;;;;;;;5.70;4.05;;;;;;;5.03;81.63;100827.09;10409500;28;20048;-50
2022/12/28 00:28:58;;;;;;;6.03;3.90;;;;;;;5.13;80.60;100812.50;10407180;28;20057;-50
2022/12/28 00:34:05;;;;;;;6.00;4.22;;;;;;;5.19;80.60;100805.22;10409336;28;20150;-51
2022/12/28 00:39:07;;;;;;;6.40;4.32;;;;;;;5.28;80.00;100792.44;10402861;28;20755;-53
2022/12/28 00:44:08;;;;;;;5.82;4.55;;;;;;;5.26;80.34;100781.06;10407155;28;20053;-51
2022/12/28 00:49:10;;;;;;;8.65;4.65;;;;;;;5.28;80.04;100742.28;10406796;28;20053;-51
2022/12/28 00:54:11;;;;;;;7.28;4.47;;;;;;;5.36;80.75;100757.72;10401333;28;20045;-51
2022/12/28 00:59:12;;;;;;;5.50;4.72;;;;;;;5.44;80.51;100750.25;10399060;28;20048;-51
2022/12/28 01:04:14;;;;;;;7.20;4.53;;;;;;;5.47;79.78;100736.03;10401454;28;20060;-51
2022/12/28 01:09:15;;;;;;;6.88;4.53;;;;;;;5.50;79.87;100722.69;10401833;28;20128;-52
2022/12/28 01:14:18;;;;;;;7.50;5.10;;;;;;;5.39;80.33;100732.94;10404579;28;20048;-51
2022/12/28 01:19:21;;;;;;;5.72;4.18;;;;;;;5.36;80.82;100725.16;10411257;28;20194;-54
2022/12/28 01:24:22;;;;;;;7.25;4.90;;;;;;;5.27;80.88;100716.81;10407044;28;20041;-51
2022/12/28 01:29:24;;;;;;;5.45;4.38;;;;;;;5.09;81.96;100697.47;10410522;28;20056;-51
2022/12/28 01:34:25;;;;;;;7.78;4.97;;;;;;;5.14;82.99;100692.81;10401991;28;20045;-51
2022/12/28 01:39:27;;;;;;;7.47;4.85;;;;;;;5.26;82.66;100682.56;10404691;28;20224;-50
2022/12/28 01:44:39;;;;;;;7.53;5.43;;;;;;;5.32;82.69;100685.72;10408768;28;20389;-50
2022/12/28 01:50:05;;;;;;;6.43;5.00;;;;;;;5.32;82.70;100695.44;10398460;28;20053;-51
2022/12/28 01:55:07;;;;;;;5.00;4.47;;;;;;;5.35;83.08;100687.38;10406416;28;20056;-50
2022/12/28 02:00:12;;;;;;;6.68;5.22;;;;;;;5.48;82.82;100674.38;10405693;28;20053;-53
2022/12/28 02:05:15;;;;;;;7.78;5.20;;;;;;;5.46;83.27;100677.13;10411518;28;20613;-50
2022/12/28 02:10:18;;;;;;;8.10;6.05;;;;;;;5.48;83.06;100662.03;10410802;28;20475;-50
2022/12/28 02:15:39;;;;;;;6.40;4.90;;;;;;;5.64;82.91;100675.28;10408374;28;20059;-50
2022/12/28 02:20:53;;;;;;;8.98;5.85;;;;;;;5.65;82.62;100671.69;10408404;28;20536;-52
2022/12/28 02:26:35;;;;;;;6.07;5.50;;;;;;;5.56;83.23;100668.69;10400944;28;20776;-50
2022/12/28 02:32:05;;;;;;;6.93;5.70;;;;;;;5.60;83.25;100642.03;10400273;28;20157;-51
2022/12/28 02:37:13;;;;;;;9.95;5.78;;;;;;;5.58;83.49;100643.06;10407754;28;20163;-50
2022/12/28 02:42:17;;;;;;;7.25;6.10;;;;;;;5.69;83.05;100642.47;10406405;28;20418;-52
2022/12/28 02:52:47;;;;;;;7.35;6.53;;;;;;;5.83;82.57;100619.66;10399911;28;20932;-51
2022/12/28 02:58:21;;;;;;;7.22;6.25;;;;;;;5.62;82.63;100619.03;10402366;28;20060;-53
2022/12/28 03:03:47;;;;;;;7.68;6.97;;;;;;;5.49;83.48;100596.84;10410988;28;20060;-51
2022/12/28 03:08:58;;;;;;;8.45;6.75;;;;;;;5.60;83.08;100594.50;10415602;28;20047;-51
2022/12/28 03:14:12;;;;;;;8.02;7.18;;;;;;;5.41;84.07;100583.22;10421206;28;20094;-50
2022/12/28 03:35:38;;;;;;;7.68;6.50;;;;;;;5.54;84.15;100579.00;10415158;28;20284;-50
2022/12/28 03:40:47;;;;;;;7.90;6.47;;;;;;;5.59;83.73;100553.19;10412643;28;20041;-50
2022/12/28 03:46:03;;;;;;;8.93;6.00;;;;;;;5.59;83.45;100542.63;10408040;28;20134;-52
2022/12/28 03:51:05;;;;;;;7.38;6.10;;;;;;;5.61;84.33;100543.38;10417687;28;20059;-50
2022/12/28 03:56:08;;;;;;;6.22;5.40;;;;;;;5.63;84.38;100538.88;10423783;28;20525;-50
2022/12/28 04:01:10;;;;;;;6.72;5.00;;;;;;;5.73;83.92;100526.00;10408034;28;20052;-51
2022/12/28 04:06:15;;;;;;;6.68;5.03;;;;;;;5.71;83.91;100503.25;10408072;28;20053;-55
2022/12/28 04:11:16;;;;;;;6.70;5.47;;;;;;;5.80;83.95;100500.94;10408451;28;20134;-51
2022/12/28 04:16:18;;;;;;;6.72;5.38;;;;;;;5.87;83.83;100505.88;10410155;28;20136;-50
2022/12/28 04:21:20;;;;;;;7.03;5.78;;;;;;;5.95;83.70;100499.22;10402476;28;20148;-52
2022/12/28 04:26:22;;;;;;;5.82;5.30;;;;;;;6.01;82.93;100498.88;10399354;28;20118;-50
2022/12/28 04:31:23;;;;;;;6.68;5.60;;;;;;;6.01;83.18;100493.59;10408560;28;20520;-50
2022/12/28 04:36:25;;;;;;;6.57;5.22;;;;;;;6.00;83.49;100491.94;10410372;28;20191;-51
2022/12/28 04:41:27;;;;;;;8.93;5.78;;;;;;;6.00;83.30;100481.34;10417126;28;20048;-50
2022/12/28 04:46:28;;;;;;;6.65;5.53;;;;;;;6.04;83.27;100467.97;10398112;28;20576;-51
2022/12/28 04:51:30;;;;;;;7.38;6.60;;;;;;;6.09;83.32;100474.66;10398537;28;20441;-50
2022/12/28 04:56:31;;;;;;;6.85;5.80;;;;;;;6.06;83.35;100458.13;10399693;28;20068;-50
2022/12/28 05:01:32;;;;;;;7.60;5.63;;;;;;;6.05;83.28;100456.44;10400754;28;20076;-50
2022/12/28 05:06:34;;;;;;;5.28;4.78;;;;;;;6.08;83.65;100451.84;10392760;28;20564;-50
2022/12/28 05:11:36;;;;;;;8.90;5.43;;;;;;;6.13;83.80;100448.91;10407684;28;20064;-52
2022/12/28 05:16:37;;;;;;;8.80;5.55;;;;;;;6.18;83.27;100446.84;10401853;28;20081;-49
2022/12/28 05:21:38;;;;;;;6.22;4.53;;;;;;;6.15;83.44;100447.03;10403212;28;20069;-55
2022/12/28 05:26:40;;;;;;;6.70;4.38;;;;;;;6.26;83.01;100447.25;10402843;28;20527;-50
2022/12/28 05:31:41;;;;;;;5.75;4.80;;;;;;;6.30;82.81;100439.97;10406077;28;20111;-50
2022/12/28 05:36:43;;;;;;;5.63;3.90;;;;;;;6.36;82.91;100424.63;10405241;28;20052;-50
2022/12/28 05:41:44;;;;;;;5.90;4.43;;;;;;;6.43;82.69;100411.03;10408915;28;20045;-52
2022/12/28 05:46:46;;;;;;;5.65;4.07;;;;;;;6.56;82.25;100406.69;10404197;28;20575;-52
2022/12/28 05:51:50;;;;;;;4.53;3.80;;;;;;;6.54;81.82;100385.63;10416067;28;20660;-50
2022/12/28 05:56:52;;;;;;;4.18;3.58;;;;;;;6.67;81.77;100401.56;10396531;28;20143;-51
2022/12/28 06:01:53;;;;;;;4.72;3.20;;;;;;;6.67;82.23;100379.56;10416182;28;20049;-50
2022/12/28 06:06:55;;;;;;;6.15;3.92;;;;;;;6.66;82.35;100386.63;10410340;28;20056;-51
2022/12/28 06:11:56;;;;;;;5.15;3.13;;;;;;;6.64;82.43;100375.31;10407945;28;20056;-51
2022/12/28 06:16:58;;;;;;;4.80;3.47;;;;;;;6.68;82.35;100371.53;10407883;28;20084;-50
2022/12/28 06:21:59;;;;;;;4.13;3.30;;;;;;;6.69;82.66;100375.03;10405414;28;20045;-51
2022/12/28 06:27:01;;;;;;;4.68;2.83;;;;;;;6.75;82.84;100363.22;10410915;28;20053;-54
2022/12/28 06:32:02;;;;;;;4.25;2.88;;;;;;;6.84;82.73;100359.97;10402982;28;20084;-51
2022/12/28 06:37:04;;;;;;;5.03;3.10;;;;;;;6.81;82.56;100355.72;10401629;28;20097;-53
2022/12/28 06:42:05;;;;;;;3.83;2.92;;;;;;;6.78;82.75;100344.50;10408428;28;20064;-51
2022/12/28 06:47:07;;;;;;;4.38;2.55;;;;;;;6.80;82.83;100348.75;10407959;28;20059;-50
2022/12/28 06:52:09;;;;;;;4.53;2.90;;;;;;;6.62;82.73;100315.50;10405387;28;20057;-50
2022/12/28 06:57:10;;;;;;;4.78;2.97;;;;;;;6.56;82.61;100319.41;10408937;28;20060;-52
2022/12/28 07:02:13;;;;;;;3.92;2.13;;;;;;;6.83;82.59;100329.16;10404852;28;20055;-50
2022/12/28 07:07:15;;;;;;;5.05;3.10;;;;;;;6.74;82.38;100330.63;10406658;28;20052;-51
2022/12/28 07:12:17;;;;;;;4.28;2.60;;;;;;;6.79;82.56;100330.34;10397558;28;20488;-50
2022/12/28 07:17:18;;;;;;;6.35;2.83;;;;;;;6.81;82.22;100331.91;10406475;28;20050;-51
2022/12/28 07:22:20;;;;;;;5.85;2.90;;;;;;;6.76;81.87;100327.88;10401246;28;20052;-51
2022/12/28 07:27:21;;;;;;;3.85;3.33;;;;;;;6.75;82.18;100318.25;10414865;28;20159;-50
2022/12/28 07:32:22;;;;;;;5.70;3.22;;;;;;;6.60;82.07;100326.19;10404709;28;20137;-51
2022/12/28 07:37:24;;;;;;;3.22;2.88;;;;;;;6.54;82.33;100318.63;10396960;28;20045;-51
2022/12/28 07:42:28;;;;;;;3.80;2.75;;;;;;;6.62;81.76;100318.16;10410623;28;20184;-52
2022/12/28 07:47:29;;;;;;;4.22;2.95;;;;;;;6.63;81.68;100325.16;10400626;28;20053;-52
2022/12/28 07:52:31;;;;;;;3.22;2.92;;;;;;;6.55;81.86;100317.69;10408103;28;20540;-51
2022/12/28 07:57:33;;;;;;;3.80;2.40;;;;;;;6.54;82.20;100316.84;10399185;28;20063;-50
2022/12/28 08:02:34;;;;;;;5.85;2.92;;;;;;;6.60;82.41;100299.72;10401482;28;20057;-50
2022/12/28 08:07:36;;;;;;;9.48;2.97;;;;;;;6.66;81.84;100294.03;10407197;28;20468;-50
2022/12/28 08:12:37;;;;;;;3.28;2.95;;;;;;;6.64;81.96;100285.38;10405098;28;20059;-50
2022/12/28 08:17:38;;;;;;;4.38;2.83;;;;;;;6.70;82.15;100290.28;10396740;28;20041;-51
2022/12/28 08:22:40;;;;;;;4.18;2.95;;;;;;;6.80;81.79;100287.03;10407289;28;20077;-51
2022/12/28 08:27:42;;;;;;;4.70;2.38;;;;;;;6.77;82.01;100279.28;10409422;28;20049;-51
2022/12/28 08:32:43;;;;;;;3.10;2.40;;;;;;;6.78;82.04;100275.72;10415776;28;20146;-50
2022/12/28 08:37:45;;;;;;;3.70;2.72;;;;;;;6.95;81.63;100278.13;10390105;28;20256;-52
2022/12/28 08:42:46;;;;;;;5.22;2.13;;;;;;;6.97;81.12;100281.50;10406211;28;20055;-51
2022/12/28 08:47:48;;;;;;;4.72;2.13;;;;;;;7.00;81.31;100276.00;10412309;28;20049;-51
2022/12/28 08:52:49;;;;;;;2.33;1.55;;;;;;;7.22;81.09;100264.00;10409568;28;20062;-52
2022/12/28 08:57:51;;;;;;;3.75;2.15;;;;;;;7.36;80.13;100277.19;10401962;28;20064;-56
2022/12/28 09:02:52;;;;;;;3.53;1.95;;;;;;;7.41;79.83;100268.94;10410679;28;20060;-50
2022/12/28 09:07:53;;;;;;;3.42;2.10;;;;;;;7.51;79.62;100274.47;10416714;28;20146;-52
2022/12/28 09:13:00;;;;;;;2.72;1.70;;;;;;;7.55;79.11;100286.53;10398688;28;20072;-51
2022/12/28 09:18:01;;;;;;;3.08;1.58;;;;;;;7.81;78.89;100297.16;10410302;28;20048;-52
2022/12/28 09:23:03;;;;;;;3.13;1.90;;;;;;;7.95;77.87;100291.78;10398092;28;20648;-51
2022/12/28 09:28:04;;;;;;;2.70;1.90;;;;;;;8.11;77.28;100287.09;10419732;28;20045;-50
2022/12/28 09:38:25;;;;;;;2.40;1.85;;;;;;;7.99;77.67;100292.41;10406792;28;20149;-51
2022/12/28 09:43:27;;;;;;;5.28;2.28;;;;;;;7.94;78.08;100287.41;10410132;28;20037;-51
2022/12/28 09:48:29;;;;;;;5.40;1.98;;;;;;;7.88;78.68;100282.53;10412159;28;20665;-50
2022/12/28 09:53:33;;;;;;;5.32;2.33;;;;;;;7.94;78.43;100290.94;10403219;28;20059;-50
2022/12/28 09:58:39;;;;;;;2.70;1.83;;;;;;;7.94;78.33;100280.34;10401050;28;20056;-50
2022/12/28 10:03:48;;;;;;;2.78;1.85;;;;;;;8.18;77.86;100276.06;10404772;28;20497;-51
2022/12/28 10:08:55;;;;;;;2.95;1.80;;;;;;;8.64;76.30;100294.06;10398316;28;20718;-51
2022/12/28 10:13:58;;;;;;;3.33;1.40;;;;;;;8.67;75.00;100275.28;10416496;28;20053;-54
2022/12/28 10:19:00;;;;;;;3.33;1.63;;;;;;;8.48;75.87;100271.28;10403347;28;20052;-51
2022/12/28 10:24:06;;;;;;;2.20;1.73;;;;;;;8.45;76.25;100275.94;10409038;28;22790;-51
2022/12/28 10:29:30;;;;;;;2.30;1.50;;;;;;;8.34;77.06;100267.91;10405733;28;20067;-51
2022/12/28 10:34:33;;;;;;;2.03;1.55;;;;;;;8.77;75.74;100265.69;10400542;28;20066;-51
2022/12/28 10:39:36;;;;;;;2.97;1.40;;;;;;;8.74;74.78;100260.59;10398968;28;20110;-51
2022/12/28 10:44:38;;;;;;;3.45;1.77;;;;;;;8.49;76.28;100256.22;10410946;28;20504;-50
2022/12/28 10:49:48;;;;;;;4.10;1.17;;;;;;;8.49;76.58;100257.06;10404711;28;20544;-51
2022/12/28 10:55:32;;;;;;;2.92;1.83;;;;;;;8.53;76.69;100254.19;10404904;28;20855;-51
2022/12/28 11:00:33;;;;;;;4.63;1.83;;;;;;;8.63;76.07;100247.25;10407333;28;20044;-50
2022/12/28 11:05:35;;;;;;;6.78;2.53;;;;;;;8.59;76.03;100245.81;10411698;28;20745;-50
2022/12/28 11:10:38;;;;;;;3.28;1.65;;;;;;;8.51;75.62;100222.44;10405288;28;20117;-49
2022/12/28 11:15:40;;;;;;;3.70;1.63;;;;;;;8.60;75.51;100218.28;10404551;28;20076;-51
2022/12/28 11:20:45;;;;;;;4.43;1.77;;;;;;;8.90;73.96;100217.84;10404391;28;20456;-50
2022/12/28 11:25:47;;;;;;;5.15;1.70;;;;;;;8.95;73.37;100209.56;10415275;28;20116;-51
2022/12/28 11:30:50;;;;;;;2.38;1.52;;;;;;;8.89;74.20;100186.97;10415089;28;20084;-51
2022/12/28 11:35:54;;;;;;;3.08;1.60;;;;;;;8.92;73.45;100193.84;10417033;28;20044;-51
2022/12/28 11:41:00;;;;;;;2.20;1.48;;;;;;;8.88;73.68;100168.50;10418870;28;20396;-50
2022/12/28 11:46:04;;;;;;;3.42;1.30;;;;;;;8.90;73.42;100147.97;10412614;28;20685;-51
2022/12/28 11:51:18;;;;;;;2.17;1.50;;;;;;;9.23;72.69;100149.88;10409457;28;20140;-50
2022/12/28 11:56:22;;;;;;;3.03;2.00;;;;;;;13.32;59.33;100139.31;10413349;28;20048;-51
2022/12/28 12:01:26;;;;;;;2.78;1.58;;;;;;;12.47;59.37;100132.88;10412850;28;20138;-51
2022/12/28 12:06:40;;;;;;;;;;;;;;;12.31;59.83;100125.41;10417260;28;20051;-51
2022/12/28 12:11:41;;;;;;;2.17;1.50;;;;;;;11.33;62.94;100119.69;10408608;28;19974;-51
2022/12/28 12:16:48;;;;;;;2.78;1.40;;;;;;;10.44;66.43;100104.88;10410552;28;20887;-50
2022/12/28 12:22:05;;;;;;;3.90;1.75;;;;;;;10.55;67.12;100101.34;10414127;28;20048;-52
2022/12/28 12:27:17;;;;;;;2.10;1.55;;;;;;;10.76;66.41;100108.50;10408044;28;20080;-52
2022/12/28 12:32:25;;;;;;;3.33;2.00;;;;;;;10.30;67.91;100093.66;10412648;28;20063;-51
2022/12/28 12:37:42;;;;;;;4.15;1.73;;;;;;;9.90;69.81;100093.25;10404586;28;20056;-51
2022/12/28 12:43:15;;;;;;;3.90;2.00;;;;;;;9.75;71.04;100091.84;10413954;28;20103;-56
2022/12/28 12:48:31;;;;;;;3.10;1.67;;;;;;;9.49;72.26;100080.63;10405785;28;20202;-51
2022/12/28 12:53:57;;;;;;;3.33;1.58;;;;;;;9.10;73.77;100050.91;10402105;28;20713;-51
2022/12/28 12:59:30;;;;;;;2.97;1.42;;;;;;;9.17;74.04;100076.84;10413679;28;20587;-50
2022/12/28 13:04:34;;;;;;;3.38;1.67;;;;;;;9.15;74.86;100068.13;10415342;28;20049;-51
2022/12/28 13:09:35;;;;;;;2.78;1.55;;;;;;;9.09;74.98;100055.34;10402744;28;20078;-52
2022/12/28 13:14:37;;;;;;;2.83;1.70;;;;;;;9.16;74.97;100053.91;10411264;28;20057;-51
2022/12/28 13:19:39;;;;;;;3.35;1.38;;;;;;;9.13;74.75;100053.31;10405589;28;20060;-50
2022/12/28 13:24:44;;;;;;;3.83;1.60;;;;;;;9.15;74.01;100046.06;10410350;28;20044;-50
2022/12/28 13:29:53;;;;;;;1.70;1.50;;;;;;;9.12;74.05;100041.81;10410577;28;20045;-50
2022/12/28 13:34:54;;;;;;;3.72;1.90;;;;;;;9.19;74.44;100043.03;10407292;28;20049;-52
2022/12/28 13:40:10;;;;;;;2.63;1.63;;;;;;;9.28;74.26;100030.03;10412248;28;20052;-50
2022/12/28 13:45:15;;;;;;;3.28;1.40;;;;;;;9.27;74.33;100023.00;10399190;28;20132;-50
2022/12/28 13:50:23;;;;;;;2.70;1.45;;;;;;;9.23;74.83;100029.53;10404365;28;20056;-49
2022/12/28 13:55:30;;;;;;;1.92;1.10;;;;;;;9.26;74.98;100021.31;10403996;28;20191;-51
2022/12/28 14:00:34;;;;;;;6.07;1.92;;;;;;;9.28;74.96;100019.41;10412241;28;20053;-51
2022/12/28 14:05:43;;;;;;;4.25;1.88;;;;;;;9.25;75.16;100014.31;10406213;28;20072;-50
2022/12/28 14:10:46;;;;;;;3.88;1.85;;;;;;;9.20;75.28;100001.38;10405976;28;20195;-51
2022/12/28 14:15:49;;;;;;;4.20;2.42;;;;;;;9.28;75.51;99987.53;10412366;28;20127;-51
2022/12/28 14:20:53;;;;;;;12.13;11.05;;;;;;;9.29;75.34;99983.88;10406655;28;20052;-50
2022/12/28 14:25:58;;;;;;;3.90;3.40;;;;;;;9.23;75.46;99973.75;10410831;28;20055;-50
2022/12/28 14:31:01;;;;;;;1.83;1.45;;;;;;;9.30;75.38;99975.78;10382961;28;20057;-51
2022/12/28 14:36:05;;;;;;;3.28;2.10;;;;;;;9.29;75.10;99973.25;10395389;28;20064;-52
2022/12/28 14:41:15;;;;;;;;;;;;;;;9.35;75.07;99972.75;10409493;28;20048;-51
2022/12/28 14:46:33;;;;;;;3.95;3.55;;;;;;;9.31;75.09;99966.03;10408975;28;20013;-51
2022/12/28 14:51:35;;;;;;;4.10;1.90;;;;;;;9.24;75.25;99970.13;10402930;28;20079;-50
2022/12/28 14:56:50;;;;;;;3.28;1.50;;;;;;;9.24;74.90;99960.34;10409534;28;21178;-51
2022/12/28 15:01:51;;;;;;;3.20;1.30;;;;;;;9.28;74.93;99959.16;10397950;28;20670;-51
2022/12/28 15:06:53;;;;;;;3.20;1.95;;;;;;;9.27;74.67;99956.63;10406907;28;20602;-51
2022/12/28 15:12:12;;;;;;;1.77;1.10;;;;;;;9.26;74.72;99953.09;10416481;28;20125;-51
2022/12/28 15:17:14;;;;;;;3.05;1.70;;;;;;;9.25;74.49;99955.88;10402810;28;20082;-50
2022/12/28 15:22:15;;;;;;;4.15;1.73;;;;;;;9.24;74.01;99946.22;10410351;28;20052;-51
2022/12/28 15:27:18;;;;;;;2.70;1.60;;;;;;;9.22;74.13;99934.88;10399650;28;20045;-50
2022/12/28 15:32:20;;;;;;;3.40;1.38;;;;;;;9.19;73.86;99914.72;10404888;28;20061;-50
2022/12/28 15:37:22;;;;;;;3.38;1.50;;;;;;;9.23;73.68;99905.53;10402171;28;20136;-50
2022/12/28 15:42:24;;;;;;;3.20;1.90;;;;;;;9.26;73.77;99909.75;10406966;28;20056;-51
2022/12/28 15:47:25;;;;;;;2.15;1.48;;;;;;;9.16;73.08;99894.56;10408046;28;20045;-51
2022/12/28 15:52:28;;;;;;;2.15;1.00;;;;;;;9.14;72.99;99896.53;10401673;28;20061;-51
2022/12/28 15:57:30;;;;;;;1.77;1.40;;;;;;;9.10;72.63;99881.78;10404334;28;20572;-50
2022/12/28 16:02:31;;;;;;;2.33;1.13;;;;;;;9.19;72.64;99883.69;10402307;28;20071;-50
2022/12/28 16:07:33;;;;;;;3.65;2.03;;;;;;;9.23;71.55;99883.44;10407272;28;20048;-50
2022/12/28 16:12:34;;;;;;;2.80;1.15;;;;;;;9.18;71.39;99886.47;10415004;28;20153;-50
2022/12/28 16:17:36;;;;;;;2.88;1.20;;;;;;;9.10;71.76;99863.19;10414881;28;20422;-52
2022/12/28 16:22:52;;;;;;;1.83;0.80;;;;;;;9.19;71.38;99882.88;10416104;28;20069;-52
2022/12/28 16:27:54;;;;;;;1.77;1.00;;;;;;;9.15;71.12;99865.50;10415510;28;20064;-56
2022/12/28 16:32:55;;;;;;;1.83;1.23;;;;;;;9.15;71.02;99861.00;10416736;28;20110;-51
2022/12/28 16:37:56;;;;;;;1.70;1.10;;;;;;;9.16;70.90;99875.97;10410075;28;20595;-51
2022/12/28 16:42:58;;;;;;;1.90;1.00;;;;;;;9.19;70.42;99878.38;10415027;28;20132;-50
2022/12/28 16:48:00;;;;;;;1.90;1.20;;;;;;;9.24;70.10;99864.75;10408036;28;20565;-50
2022/12/28 16:53:04;;;;;;;2.25;1.10;;;;;;;9.27;69.89;99867.16;10407399;28;20127;-50
2022/12/28 16:58:06;;;;;;;3.47;1.60;;;;;;;9.29;70.04;99861.69;10414550;28;20049;-50
2022/12/28 17:03:07;;;;;;;2.60;1.48;;;;;;;9.32;69.18;99858.78;10413568;28;20946;-50
2022/12/28 17:08:09;;;;;;;4.38;1.40;;;;;;;9.25;69.50;99839.88;10404586;28;20052;-50
2022/12/28 17:13:10;;;;;;;2.53;1.13;;;;;;;9.31;69.45;99841.19;10417237;28;20107;-51
2022/12/28 17:18:12;;;;;;;1.83;1.08;;;;;;;9.15;69.25;99817.69;10406620;28;20052;-51
2022/12/28 17:23:13;;;;;;;2.85;1.50;;;;;;;9.29;69.26;99841.31;10413762;28;20045;-52
2022/12/28 17:28:15;;;;;;;2.72;1.63;;;;;;;9.29;68.81;99851.09;10409137;28;20067;-50
2022/12/28 17:33:17;;;;;;;2.55;1.38;;;;;;;9.28;68.97;99833.47;10408597;28;20048;-51
2022/12/28 17:38:19;;;;;;;3.15;1.35;;;;;;;9.29;68.94;99835.16;10407124;28;20037;-51
2022/12/28 17:43:20;;;;;;;3.15;2.05;;;;;;;9.30;69.19;99827.06;10404559;28;20600;-50
2022/12/28 17:48:26;;;;;;;3.35;1.55;;;;;;;9.34;68.90;99817.03;10422325;28;20045;-50
2022/12/28 17:53:28;;;;;;;2.15;1.20;;;;;;;9.26;68.98;99809.66;10402241;28;20059;-52
2022/12/28 17:58:30;;;;;;;4.32;1.65;;;;;;;9.29;68.96;99797.97;10419141;28;20135;-50
2022/12/28 18:03:31;;;;;;;18.52;15.63;;;;;;;9.30;69.14;99779.25;10409479;28;20144;-53
2022/12/28 18:08:37;;;;;;;4.15;1.90;;;;;;;9.23;68.88;99767.44;10409516;28;20123;-51
2022/12/28 18:13:41;;;;;;;12.38;11.23;;;;;;;9.18;69.48;99759.84;10413543;28;21019;-52
2022/12/28 18:18:42;;;;;;;2.88;2.03;;;;;;;9.22;69.45;99755.16;10403055;28;20050;-52
2022/12/28 18:23:45;;;;;;;3.58;2.67;;;;;;;9.18;69.38;99743.91;10418533;28;20061;-51
2022/12/28 18:28:47;;;;;;;4.18;2.17;;;;;;;9.17;69.30;99739.59;10402176;28;20083;-51
2022/12/28 18:33:49;;;;;;;3.00;2.20;;;;;;;9.17;69.08;99726.31;10403080;28;20143;-53
2022/12/28 18:38:50;;;;;;;5.40;5.00;;;;;;;9.23;68.94;99716.97;10406742;28;20091;-51
2022/12/28 18:43:51;;;;;;;2.95;2.40;;;;;;;9.30;68.93;99719.97;10415123;28;20049;-51
2022/12/28 18:48:53;;;;;;;4.85;2.38;;;;;;;9.41;68.76;99709.28;10419678;28;20094;-51
2022/12/28 18:53:54;;;;;;;5.88;5.32;;;;;;;9.45;68.27;99699.25;10401970;28;20088;-51
2022/12/28 18:58:56;;;;;;;3.13;2.50;;;;;;;9.47;67.61;99703.47;10409771;28;20684;-51
2022/12/28 19:03:59;;;;;;;2.03;1.58;;;;;;;9.50;67.62;99695.25;10409891;28;20056;-51
2022/12/28 19:09:03;;;;;;;3.85;3.22;;;;;;;9.47;67.46;99684.88;10404020;28;20741;-51
2022/12/28 19:14:06;;;;;;;4.00;2.15;;;;;;;9.51;68.09;99680.97;10404998;28;20508;-51
2022/12/28 19:19:08;;;;;;;2.15;1.75;;;;;;;9.41;67.76;99664.13;10407903;28;20709;-52
2022/12/28 19:24:18;;;;;;;2.45;1.85;;;;;;;9.43;68.23;99659.53;10407223;28;20082;-51
2022/12/28 19:29:20;;;;;;;2.17;1.70;;;;;;;9.43;67.76;99654.22;10407484;28;20128;-52
2022/12/28 19:34:22;;;;;;;2.28;1.83;;;;;;;9.47;68.00;99653.00;10399093;28;20048;-51
2022/12/28 19:39:23;;;;;;;2.42;1.90;;;;;;;9.51;67.95;99649.09;10411438;28;20162;-51
2022/12/28 19:44:24;;;;;;;3.58;2.00;;;;;;;9.47;68.36;99647.69;10406253;28;20049;-58
2022/12/28 19:49:26;;;;;;;2.60;2.03;;;;;;;9.51;68.30;99638.44;10416275;28;20063;-52
2022/12/28 19:54:28;;;;;;;3.75;2.10;;;;;;;9.51;68.13;99619.84;10414034;28;20082;-51
2022/12/28 19:59:29;;;;;;;2.90;2.10;;;;;;;9.51;68.28;99605.75;10419191;28;20063;-51
2022/12/28 20:04:31;;;;;;;2.53;2.25;;;;;;;9.58;68.18;99614.00;10408555;28;20569;-51
2022/12/28 20:09:33;;;;;;;2.83;2.28;;;;;;;9.51;68.13;99601.25;10418256;28;20557;-51
2022/12/28 20:14:35;;;;;;;9.60;7.28;;;;;;;9.43;68.56;99598.44;10406694;28;20048;-51
2022/12/28 20:19:37;;;;;;;7.50;6.68;;;;;;;9.46;68.64;99598.16;10418283;28;20154;-51
2022/12/28 20:24:39;;;;;;;2.85;2.47;;;;;;;9.47;68.78;99588.38;10406817;28;20425;-50
2022/12/28 20:29:41;;;;;;;3.20;2.90;;;;;;;9.46;68.68;99579.56;10409181;28;20072;-50
2022/12/28 20:34:42;;;;;;;5.00;2.42;;;;;;;9.44;68.54;99567.38;10414497;28;20058;-51
2022/12/28 20:39:44;;;;;;;46.92;43.17;;;;;;;9.47;68.99;99557.34;10408129;28;20126;-51
2022/12/28 20:44:45;;;;;;;3.25;2.17;;;;;;;9.53;68.63;99559.47;10408464;28;20061;-50
2022/12/28 20:49:47;;;;;;;4.05;2.17;;;;;;;9.58;68.44;99560.88;10410886;28;20075;-51
2022/12/28 20:54:48;;;;;;;2.60;1.67;;;;;;;9.49;68.46;99562.53;10408583;28;20436;-50
2022/12/28 20:59:49;;;;;;;4.43;2.17;;;;;;;9.50;68.33;99562.41;10410877;28;20045;-51
2022/12/28 21:04:51;;;;;;;3.10;2.38;;;;;;;9.55;68.15;99565.47;10413329;28;20037;-51
2022/12/28 21:09:53;;;;;;;2.55;1.92;;;;;;;9.57;68.45;99553.88;10413036;28;20048;-51
2022/12/28 21:14:54;;;;;;;2.75;2.10;;;;;;;9.52;68.83;99549.81;10413967;28;20057;-51
2022/12/28 21:19:55;;;;;;;4.88;2.15;;;;;;;9.50;68.67;99534.97;10405979;28;20498;-51
2022/12/28 21:24:57;;;;;;;4.07;2.55;;;;;;;9.49;68.57;99539.44;10404700;28;20646;-51
2022/12/28 21:29:58;;;;;;;2.78;2.20;;;;;;;9.58;69.19;99536.94;10406024;28;20079;-51
2022/12/28 21:34:59;;;;;;;3.30;2.05;;;;;;;9.61;69.32;99531.38;10410759;28;20045;-51
2022/12/28 21:40:06;;;;;;;2.88;1.67;;;;;;;9.63;68.77;99524.13;10416923;28;20064;-51
2022/12/28 21:45:08;;;;;;;1.77;1.67;;;;;;;9.62;68.99;99528.56;10403516;28;20082;-51
2022/12/28 21:50:10;;;;;;;3.00;1.58;;;;;;;9.64;68.44;99526.63;10407847;28;20079;-51
2022/12/28 22:06:03;;;;;;;3.95;1.90;;;;;;;9.63;68.78;99503.69;10402250;28;20442;-50
2022/12/28 22:16:24;;;;;;;3.03;1.75;;;;;;;9.70;69.17;99477.44;10403776;28;20524;-52
2022/12/28 22:21:27;;;;;;;3.03;1.92;;;;;;;9.71;69.10;99473.78;10393343;28;20772;-51
2022/12/28 22:26:28;;;;;;;2.70;1.90;;;;;;;9.69;69.51;99473.91;10387959;28;20048;-51
2022/12/28 22:31:30;;;;;;;3.42;1.92;;;;;;;9.72;69.94;99472.81;10400568;28;20052;-51
2022/12/28 22:36:32;;;;;;;2.63;1.90;;;;;;;9.75;70.06;99474.34;10378515;28;20048;-58
2022/12/28 22:41:34;;;;;;;3.30;2.03;;;;;;;9.76;69.76;99462.72;10410501;28;20040;-51
2022/12/28 22:46:35;;;;;;;2.97;2.08;;;;;;;9.73;70.25;99450.56;10400557;28;20103;-51
2022/12/28 22:51:37;;;;;;;2.30;1.95;;;;;;;9.74;70.26;99457.56;10408143;28;20539;-50
2022/12/28 22:56:38;;;;;;;3.63;1.80;;;;;;;9.76;70.57;99449.44;10402286;28;20045;-51
2022/12/28 23:01:40;;;;;;;2.33;1.52;;;;;;;9.72;70.94;99443.56;10402461;28;20057;-53
2022/12/28 23:06:43;;;;;;;2.72;2.25;;;;;;;9.77;71.37;99445.81;10407269;28;20958;-51
2022/12/28 23:11:44;;;;;;;3.42;2.08;;;;;;;9.84;71.81;99441.63;10401658;28;20243;-50
2022/12/28 23:16:47;;;;;;;2.03;1.80;;;;;;;9.87;72.39;99431.56;10403568;28;20053;-58
2022/12/28 23:27:21;;;;;;;2.78;1.67;;;;;;;9.99;73.33;99418.13;10415038;28;20134;-51
2022/12/28 23:32:23;;;;;;;1.95;1.48;;;;;;;10.04;73.80;99410.56;10412445;28;20130;-52
2022/12/28 23:37:24;;;;;;;3.95;1.52;;;;;;;10.07;74.18;99411.13;10428640;28;20051;-58
2022/12/28 23:42:26;;;;;;;2.97;1.65;;;;;;;10.16;74.54;99404.09;10409256;28;20059;-52
2022/12/28 23:47:27;;;;;;;2.95;1.48;;;;;;;10.20;74.71;99386.91;10416490;28;20647;-51
2022/12/28 23:52:29;;;;;;;2.78;1.65;;;;;;;10.23;75.09;99378.63;10415533;28;20137;-53
2022/12/28 23:57:30;;;;;;;3.03;1.50;;;;;;;10.25;75.43;99371.38;10406777;28;20120;-51
